Time;durP1;ratioP1;P1;durP2;ratioP2;P2;SDS_P1;SDS_P2;PMS_P1;PMS_P2;Temp;Humidity;BMP_temperature;BMP_pressure;BME280_temperature;BME280_humidity;BME280_pressure;Samples;Min_cycle;Max_cycle;Signal;HPM_P1;HPM_P2
2022/06/18 00:00:12;;;;;;;16.73;9.90;;;19.30;91.20;;;;;;5064003;28;20140;-82
2022/06/18 00:02:42;;;;;;;22.17;9.32;;;19.30;91.30;;;;;;5080627;28;20045;-80
2022/06/18 00:05:10;;;;;;;16.90;9.10;;;19.30;91.90;;;;;;5080675;28;20037;-78
2022/06/18 00:07:40;;;;;;;18.25;9.27;;;19.20;92.00;;;;;;5079537;28;20071;-82
2022/06/18 00:10:09;;;;;;;19.75;9.48;;;19.20;93.50;;;;;;5077213;28;20124;-80
2022/06/18 00:15:25;;;;;;;16.95;9.10;;;19.20;93.30;;;;;;5063963;28;20055;-80
2022/06/18 00:17:51;;;;;;;16.65;9.60;;;19.20;93.70;;;;;;5058502;28;20045;-82
2022/06/18 00:20:19;;;;;;;17.63;9.90;;;19.20;94.30;;;;;;5039672;28;20045;-79
2022/06/18 00:22:49;;;;;;;20.70;9.95;;;19.20;94.10;;;;;;5060249;28;20052;-77
2022/06/18 00:25:19;;;;;;;16.85;9.68;;;19.20;94.70;;;;;;5075455;28;20135;-81
2022/06/18 00:27:45;;;;;;;18.52;9.98;;;19.20;94.70;;;;;;5075278;28;20051;-83
2022/06/18 00:30:18;;;;;;;18.48;9.63;;;19.20;94.00;;;;;;5058646;28;20040;-78
2022/06/18 00:32:44;;;;;;;23.98;11.27;;;19.20;93.60;;;;;;5075380;28;20052;-81
2022/06/18 00:35:12;;;;;;;21.67;10.57;;;19.30;93.60;;;;;;5076293;28;20063;-84
2022/06/18 00:37:39;;;;;;;20.95;10.93;;;19.30;93.50;;;;;;5065850;28;20040;-82
2022/06/18 00:40:15;;;;;;;20.02;10.95;;;19.30;93.50;;;;;;5060023;28;20052;-79
2022/06/18 00:42:42;;;;;;;29.00;10.93;;;19.30;93.40;;;;;;5070323;28;20036;-81
2022/06/18 00:45:10;;;;;;;;;;;19.30;93.30;;;;;;5076969;28;20033;-80
2022/06/18 00:48:00;;;;;;;19.35;10.30;;;19.30;94.20;;;;;;5074676;28;19925;-82
2022/06/18 00:50:44;;;;;;;16.45;9.95;;;19.30;94.80;;;;;;5094626;28;20053;-82
2022/06/18 00:53:18;;;;;;;24.27;10.98;;;19.30;94.90;;;;;;5074218;28;20044;-81
2022/06/18 00:56:03;;;;;;;20.55;11.30;;;19.20;94.80;;;;;;5058556;28;20060;-80
2022/06/18 00:58:35;;;;;;;19.30;10.43;;;19.10;94.70;;;;;;5060551;28;20044;-81
2022/06/18 01:01:03;;;;;;;23.25;11.15;;;19.10;96.60;;;;;;5057379;28;20041;-80
2022/06/18 01:03:38;;;;;;;20.95;11.10;;;19.10;96.60;;;;;;5061494;28;20044;-81
2022/06/18 01:06:18;;;;;;;26.98;11.60;;;19.10;97.00;;;;;;5042607;28;20044;-80
2022/06/18 01:08:46;;;;;;;21.40;11.38;;;19.10;97.80;;;;;;5076445;28;20492;-80
2022/06/18 01:11:23;;;;;;;20.23;12.13;;;19.10;97.30;;;;;;5061874;28;20041;-82
2022/06/18 01:13:49;;;;;;;;;;;19.20;97.80;;;;;;5075096;28;20052;-80
2022/06/18 01:16:16;;;;;;;23.80;11.70;;;19.20;98.40;;;;;;5078030;28;19920;-82
2022/06/18 01:18:43;;;;;;;21.30;11.00;;;19.20;97.90;;;;;;5076488;28;20045;-81
2022/06/18 01:21:46;;;;;;;28.70;11.65;;;19.10;97.30;;;;;;5077064;28;20071;-80
2022/06/18 01:24:17;;;;;;;24.02;11.43;;;19.10;98.10;;;;;;5078857;28;20075;-81
2022/06/18 01:26:46;;;;;;;25.00;12.25;;;19.10;98.00;;;;;;5074425;28;20117;-81
2022/06/18 01:29:12;;;;;;;22.20;11.80;;;19.10;97.80;;;;;;5078801;28;20048;-80
2022/06/18 01:31:38;;;;;;;18.87;11.80;;;19.10;97.90;;;;;;5075433;28;20036;-80
2022/06/18 01:34:06;;;;;;;24.90;12.00;;;19.10;98.60;;;;;;5076989;28;20794;-81
2022/06/18 01:36:34;;;;;;;20.83;12.32;;;19.00;98.00;;;;;;5075859;28;20064;-80
2022/06/18 01:39:06;;;;;;;20.75;12.15;;;19.00;99.40;;;;;;5059686;28;20049;-81
2022/06/18 01:41:50;;;;;;;24.00;12.07;;;18.90;99.60;;;;;;5058826;28;20086;-82
2022/06/18 01:44:42;;;;;;;23.75;13.23;;;18.90;99.90;;;;;;5059507;28;20072;-80
2022/06/18 01:47:38;;;;;;;24.77;12.18;;;18.80;99.90;;;;;;5028407;28;20052;-82
2022/06/18 01:50:14;;;;;;;22.33;12.70;;;18.70;99.90;;;;;;5044907;28;20057;-79
2022/06/18 01:52:45;;;;;;;21.37;12.73;;;18.60;99.90;;;;;;5039032;28;20044;-82
2022/06/18 01:55:26;;;;;;;22.73;13.48;;;18.60;99.90;;;;;;5075902;28;20295;-81
2022/06/18 01:57:57;;;;;;;22.00;13.23;;;18.50;99.90;;;;;;5073889;28;20396;-81
2022/06/18 02:00:27;;;;;;;26.25;12.52;;;18.40;99.90;;;;;;5108794;28;20041;-81
2022/06/18 02:02:53;;;;;;;22.98;13.48;;;18.40;99.90;;;;;;5077892;28;20052;-82
2022/06/18 02:05:20;;;;;;;23.98;14.20;;;18.40;99.90;;;;;;5077045;28;20345;-82
2022/06/18 02:07:48;;;;;;;19.73;12.95;;;18.30;99.90;;;;;;5057888;28;20048;-81
2022/06/18 02:10:19;;;;;;;24.38;12.93;;;18.30;99.90;;;;;;5073320;28;20113;-81
2022/06/18 02:12:45;;;;;;;23.30;12.40;;;18.20;99.90;;;;;;5041654;28;20106;-82
2022/06/18 02:15:16;;;;;;;22.30;12.75;;;18.20;99.90;;;;;;5083168;28;20047;-82
2022/06/18 02:17:42;;;;;;;23.13;13.73;;;18.20;99.90;;;;;;5067814;28;20041;-83
2022/06/18 02:20:21;;;;;;;23.13;13.85;;;18.10;99.90;;;;;;5068702;28;20206;-81
2022/06/18 02:22:50;;;;;;;25.08;14.48;;;18.10;99.90;;;;;;5069585;28;20048;-81
2022/06/18 02:25:19;;;;;;;30.20;14.80;;;18.10;99.90;;;;;;5072449;28;20131;-83
2022/06/18 02:27:46;;;;;;;21.83;14.07;;;18.10;99.90;;;;;;5076351;28;20086;-81
2022/06/18 02:30:19;;;;;;;27.50;14.07;;;18.10;99.90;;;;;;5107282;28;20444;-82
2022/06/18 02:32:52;;;;;;;20.20;13.63;;;18.10;99.90;;;;;;5107259;28;20044;-84
2022/06/18 02:35:18;;;;;;;23.65;13.48;;;18.00;99.90;;;;;;5106492;28;20052;-79
2022/06/18 02:37:45;;;;;;;29.20;14.43;;;18.00;99.90;;;;;;5083667;28;20372;-82
2022/06/18 02:40:22;;;;;;;25.98;14.57;;;17.90;99.90;;;;;;5101880;28;20064;-80
2022/06/18 02:42:51;;;;;;;27.55;16.10;;;17.90;99.90;;;;;;5102802;28;20082;-83
2022/06/18 02:45:19;;;;;;;25.38;15.35;;;17.90;99.90;;;;;;5071105;28;20084;-78
2022/06/18 02:47:45;;;;;;;29.02;15.88;;;17.90;99.90;;;;;;5080346;28;20049;-84
2022/06/18 02:50:14;;;;;;;27.75;15.10;;;17.80;99.90;;;;;;5081833;28;20047;-82
2022/06/18 02:52:46;;;;;;;28.02;15.95;;;17.90;99.90;;;;;;5051001;28;20037;-83
2022/06/18 02:55:30;;;;;;;28.73;15.27;;;17.90;99.90;;;;;;5068649;28;20041;-80
2022/06/18 02:58:07;;;;;;;26.45;14.95;;;17.90;99.90;;;;;;5070233;28;20037;-83
2022/06/18 03:00:37;;;;;;;30.15;16.08;;;17.90;99.90;;;;;;5072731;28;20048;-80
2022/06/18 03:03:08;;;;;;;27.92;16.45;;;17.80;99.90;;;;;;5070476;28;20044;-79
2022/06/18 03:05:34;;;;;;;30.27;16.90;;;17.80;99.90;;;;;;5071319;28;20048;-78
2022/06/18 03:08:00;;;;;;;28.83;16.57;;;17.80;99.90;;;;;;5072321;28;20041;-75
2022/06/18 03:13:10;;;;;;;29.45;17.38;;;17.80;99.90;;;;;;5071948;28;20060;-76
2022/06/18 03:15:36;;;;;;;33.03;17.98;;;17.80;99.90;;;;;;5072091;28;20047;-76
2022/06/18 03:18:03;;;;;;;27.70;16.57;;;17.80;99.90;;;;;;5071848;28;20045;-74
2022/06/18 03:21:01;;;;;;;35.47;18.17;;;17.80;99.90;;;;;;5070727;28;20044;-74
2022/06/18 03:23:27;;;;;;;30.60;17.73;;;17.80;99.90;;;;;;5071088;28;20177;-80
2022/06/18 03:25:53;;;;;;;30.37;18.40;;;17.80;99.90;;;;;;5076258;28;20469;-77
2022/06/18 03:28:21;;;;;;;32.35;18.73;;;17.70;99.90;;;;;;5075476;28;20044;-73
2022/06/18 03:30:47;;;;;;;32.88;18.67;;;17.70;99.90;;;;;;5075790;28;20036;-77
2022/06/18 03:33:13;;;;;;;30.43;18.07;;;17.70;99.90;;;;;;5075152;28;20040;-74
2022/06/18 03:35:43;;;;;;;29.50;18.67;;;17.70;99.90;;;;;;5075222;28;20048;-75
2022/06/18 03:38:09;;;;;;;40.75;21.27;;;17.70;99.90;;;;;;5074715;28;20079;-75
2022/06/18 03:40:35;;;;;;;33.55;20.08;;;17.70;99.90;;;;;;5075709;28;20373;-75
2022/06/18 03:43:01;;;;;;;31.63;20.00;;;17.80;99.90;;;;;;5074473;28;20114;-75
2022/06/18 03:45:29;;;;;;;30.53;20.13;;;17.80;99.90;;;;;;5075799;28;20128;-76
2022/06/18 03:47:54;;;;;;;34.20;19.20;;;17.90;99.90;;;;;;5075727;28;20101;-75
2022/06/18 03:50:21;;;;;;;42.47;20.43;;;17.80;99.90;;;;;;5074445;28;20041;-75
2022/06/18 03:52:47;;;;;;;35.30;20.48;;;17.90;99.90;;;;;;5075520;28;20408;-75
2022/06/18 03:55:14;;;;;;;35.83;20.63;;;18.00;99.90;;;;;;5073938;28;20041;-76
2022/06/18 03:57:40;;;;;;;31.65;18.73;;;18.00;99.90;;;;;;5074151;28;20291;-75
2022/06/18 04:00:09;;;;;;;32.13;19.00;;;18.10;99.90;;;;;;5075443;28;20545;-76
2022/06/18 04:02:34;;;;;;;33.05;20.00;;;18.10;99.90;;;;;;5075926;28;20072;-75
2022/06/18 04:05:00;;;;;;;34.20;20.10;;;18.20;99.90;;;;;;5075575;28;20560;-75
2022/06/18 04:07:26;;;;;;;35.13;19.63;;;18.20;99.90;;;;;;5075296;28;20051;-76
2022/06/18 04:09:53;;;;;;;36.77;18.80;;;18.30;99.90;;;;;;5075210;28;20464;-75
2022/06/18 04:12:20;;;;;;;30.58;19.88;;;18.30;99.90;;;;;;5074143;28;20147;-75
2022/06/18 04:14:46;;;;;;;34.90;19.95;;;18.40;99.90;;;;;;5057222;28;20136;-74
2022/06/18 04:17:16;;;;;;;35.30;19.63;;;18.40;99.90;;;;;;5074803;28;20080;-76
2022/06/18 04:19:42;;;;;;;36.03;19.67;;;18.40;99.90;;;;;;5076214;28;20056;-75
2022/06/18 04:22:08;;;;;;;31.90;20.17;;;18.50;99.90;;;;;;5076292;28;20101;-75
2022/06/18 04:24:34;;;;;;;38.85;20.52;;;18.50;99.90;;;;;;5085901;28;20070;-79
2022/06/18 04:27:00;;;;;;;37.10;20.55;;;18.60;99.90;;;;;;5096643;28;20059;-77
2022/06/18 04:29:28;;;;;;;36.80;20.63;;;18.60;99.90;;;;;;5096678;28;20044;-76
2022/06/18 04:31:54;;;;;;;35.60;20.92;;;18.70;99.90;;;;;;5094093;28;20088;-77
2022/06/18 04:34:20;;;;;;;39.97;20.58;;;18.70;99.90;;;;;;5087051;28;20045;-76
2022/06/18 04:36:46;;;;;;;49.80;22.20;;;18.70;99.90;;;;;;5076497;28;20113;-76
2022/06/18 04:39:12;;;;;;;45.13;20.57;;;18.80;99.90;;;;;;5078766;28;20044;-76
2022/06/18 04:41:39;;;;;;;;;;;18.90;99.90;;;;;;5076456;28;20056;-76
2022/06/18 04:44:04;;;;;;;39.15;19.88;;;18.90;99.90;;;;;;5077071;28;19920;-77
2022/06/18 04:46:30;;;;;;;39.93;19.83;;;19.00;99.90;;;;;;5076004;28;20051;-78
2022/06/18 04:48:56;;;;;;;42.77;21.37;;;19.10;99.90;;;;;;5074775;28;20049;-76
2022/06/18 04:51:22;;;;;;;37.10;20.47;;;19.10;99.90;;;;;;5073414;28;20098;-76
2022/06/18 04:53:48;;;;;;;41.03;21.30;;;19.20;99.90;;;;;;5074524;28;20045;-75
2022/06/18 04:56:14;;;;;;;41.03;20.63;;;19.20;99.90;;;;;;5073211;28;20072;-75
2022/06/18 04:58:40;;;;;;;43.20;20.60;;;19.20;99.90;;;;;;5074549;28;20048;-77
2022/06/18 05:01:06;;;;;;;46.20;21.20;;;19.30;99.90;;;;;;5074501;28;20048;-76
2022/06/18 05:03:33;;;;;;;42.67;20.67;;;19.30;99.90;;;;;;5075010;28;20127;-77
2022/06/18 05:05:58;;;;;;;41.67;20.60;;;19.30;99.90;;;;;;5073258;28;20123;-76
2022/06/18 05:08:25;;;;;;;43.73;20.77;;;19.30;99.90;;;;;;5074966;28;20087;-76
2022/06/18 05:10:51;;;;;;;;;;;19.40;99.90;;;;;;5074742;28;20365;-77
2022/06/18 05:13:18;;;;;;;42.03;20.60;;;19.40;99.90;;;;;;5074175;28;19920;-77
2022/06/18 05:15:46;;;;;;;50.85;21.17;;;19.40;99.90;;;;;;5074124;28;20037;-76
2022/06/18 05:18:14;;;;;;;48.25;21.77;;;19.50;99.90;;;;;;5074353;28;20074;-76
2022/06/18 05:20:40;;;;;;;47.38;21.23;;;19.50;99.90;;;;;;5072799;28;20047;-77
2022/06/18 05:23:06;;;;;;;52.60;21.47;;;19.50;99.90;;;;;;5074237;28;20048;-77
2022/06/18 05:25:32;;;;;;;51.03;21.67;;;19.60;99.90;;;;;;5073985;28;20047;-77
2022/06/18 05:27:58;;;;;;;42.17;20.73;;;19.60;99.90;;;;;;5072594;28;20324;-75
2022/06/18 05:30:25;;;;;;;45.70;21.37;;;19.70;99.90;;;;;;5072714;28;20050;-76
2022/06/18 05:32:52;;;;;;;47.55;22.65;;;19.70;99.90;;;;;;5073783;28;20123;-76
2022/06/18 05:35:17;;;;;;;51.55;21.67;;;19.70;99.90;;;;;;5072702;28;20051;-76
2022/06/18 05:37:44;;;;;;;44.63;22.13;;;19.70;99.90;;;;;;5072217;28;20049;-75
2022/06/18 05:40:12;;;;;;;51.65;22.92;;;19.70;99.90;;;;;;5073507;28;20056;-74
2022/06/18 05:42:38;;;;;;;42.65;22.10;;;19.60;99.90;;;;;;5073673;28;20044;-76
2022/06/18 05:45:05;;;;;;;45.90;22.97;;;19.60;99.90;;;;;;5073120;28;20049;-76
2022/06/18 05:47:32;;;;;;;44.55;21.85;;;19.60;99.90;;;;;;5073292;28;20113;-75
2022/06/18 05:49:59;;;;;;;45.97;22.00;;;19.70;99.90;;;;;;5073304;28;20041;-75
2022/06/18 05:52:26;;;;;;;54.15;24.38;;;19.70;99.90;;;;;;5072221;28;20228;-77
2022/06/18 05:54:52;;;;;;;43.20;22.25;;;19.70;99.90;;;;;;5073748;28;20179;-78
2022/06/18 05:57:19;;;;;;;50.50;23.87;;;19.80;99.90;;;;;;5073788;28;20090;-76
2022/06/18 05:59:46;;;;;;;48.65;22.75;;;19.90;99.90;;;;;;5073280;28;20123;-75
2022/06/18 06:02:14;;;;;;;46.63;23.08;;;19.90;99.90;;;;;;5073280;28;20129;-77
2022/06/18 06:04:42;;;;;;;43.53;22.83;;;20.00;99.90;;;;;;5073401;28;20044;-76
2022/06/18 06:07:22;;;;;;;44.42;22.60;;;20.00;99.90;;;;;;5073113;28;20088;-77
2022/06/18 06:12:37;;;;;;;46.45;21.38;;;20.10;99.90;;;;;;5073471;28;20090;-77
2022/06/18 06:15:04;;;;;;;37.97;20.70;;;20.10;99.90;;;;;;5072893;28;20036;-76
2022/06/18 06:17:32;;;;;;;45.65;21.52;;;20.20;99.90;;;;;;5072668;28;20052;-76
2022/06/18 06:20:02;;;;;;;49.72;20.83;;;20.20;99.90;;;;;;5071534;28;20119;-76
2022/06/18 06:22:28;;;;;;;49.92;21.88;;;20.30;99.90;;;;;;5071392;28;20123;-75
2022/06/18 06:24:53;;;;;;;43.27;20.87;;;20.20;99.90;;;;;;5072644;28;20182;-76
2022/06/18 06:27:19;;;;;;;45.23;21.23;;;20.30;99.90;;;;;;5073271;28;20079;-76
2022/06/18 06:29:45;;;;;;;46.10;19.60;;;20.40;99.90;;;;;;5072709;28;20483;-76
2022/06/18 06:32:11;;;;;;;45.33;20.77;;;20.40;99.90;;;;;;5072619;28;20128;-75
2022/06/18 06:34:37;;;;;;;51.80;22.13;;;20.50;99.90;;;;;;5071743;28;20432;-74
2022/06/18 06:37:04;;;;;;;43.38;22.50;;;20.60;99.90;;;;;;5072266;28;20059;-75
2022/06/18 06:39:30;;;;;;;48.92;21.85;;;20.60;99.90;;;;;;5054911;28;20087;-77
2022/06/18 06:41:55;;;;;;;46.38;20.35;;;20.70;99.90;;;;;;5072334;28;20060;-75
2022/06/18 06:44:21;;;;;;;41.57;20.80;;;20.90;99.90;;;;;;5071343;28;20044;-76
2022/06/18 06:46:47;;;;;;;41.83;19.97;;;20.90;99.90;;;;;;5072348;28;20052;-78
2022/06/18 06:49:13;;;;;;;48.88;18.88;;;21.00;99.90;;;;;;5072497;28;20071;-77
2022/06/18 06:51:39;;;;;;;51.00;21.47;;;20.90;99.90;;;;;;5071133;28;20052;-77
2022/06/18 06:54:08;;;;;;;45.60;19.83;;;21.00;99.90;;;;;;5072483;28;20473;-77
2022/06/18 06:59:18;;;;;;;41.40;20.35;;;20.90;99.90;;;;;;5071571;28;20088;-76
2022/06/18 07:01:45;;;;;;;44.47;19.83;;;21.00;99.90;;;;;;5070954;28;20095;-76
2022/06/18 07:04:12;;;;;;;44.88;21.05;;;21.00;99.90;;;;;;5054430;28;20488;-76
2022/06/18 07:06:38;;;;;;;39.00;20.35;;;21.10;99.90;;;;;;5072781;28;20406;-76
2022/06/18 07:09:05;;;;;;;43.08;20.27;;;21.30;99.90;;;;;;5071088;28;20052;-76
2022/06/18 07:11:33;;;;;;;45.67;20.85;;;21.10;99.90;;;;;;5072097;28;20059;-75
2022/06/18 07:13:59;;;;;;;42.90;19.25;;;21.20;99.90;;;;;;5071011;28;20044;-75
2022/06/18 07:16:25;;;;;;;41.55;19.55;;;21.30;99.90;;;;;;5071161;28;20065;-77
2022/06/18 07:18:53;;;;;;;39.80;19.93;;;21.40;99.90;;;;;;5072633;28;20068;-77
2022/06/18 07:21:19;;;;;;;47.75;21.13;;;21.50;99.90;;;;;;5072445;28;20127;-76
2022/06/18 07:23:45;;;;;;;45.47;21.10;;;21.60;99.90;;;;;;5072384;28;20501;-78
2022/06/18 07:26:14;;;;;;;47.47;20.07;;;21.50;99.90;;;;;;5072107;28;20045;-76
2022/06/18 07:28:42;;;;;;;46.00;21.25;;;21.60;99.90;;;;;;5104883;28;20059;-77
2022/06/18 07:31:14;;;;;;;36.85;18.92;;;21.60;99.90;;;;;;5070857;28;20072;-78
2022/06/18 07:33:40;;;;;;;37.85;16.58;;;21.70;99.90;;;;;;5072004;28;20091;-77
2022/06/18 07:36:06;;;;;;;37.83;16.83;;;21.70;99.90;;;;;;5070686;28;20049;-77
2022/06/18 07:38:32;;;;;;;42.80;16.83;;;21.90;99.90;;;;;;5071930;28;20102;-75
2022/06/18 07:40:58;;;;;;;40.70;17.83;;;21.90;99.90;;;;;;5070283;28;20064;-78
2022/06/18 07:43:32;;;;;;;38.07;17.33;;;22.00;99.90;;;;;;5071861;28;20044;-77
2022/06/18 07:45:58;;;;;;;38.00;15.55;;;22.10;99.90;;;;;;5054544;28;20326;-77
2022/06/18 07:48:23;;;;;;;31.23;14.87;;;22.20;99.90;;;;;;5070629;28;20088;-78
2022/06/18 07:50:50;;;;;;;36.70;14.70;;;22.30;99.90;;;;;;5070874;28;20044;-78
2022/06/18 07:53:24;;;;;;;28.65;13.77;;;22.30;99.90;;;;;;5071596;28;20531;-77
2022/06/18 07:55:51;;;;;;;35.28;14.10;;;22.40;99.90;;;;;;5071602;28;20429;-79
2022/06/18 07:58:17;;;;;;;25.33;12.43;;;22.40;99.90;;;;;;5071854;28;20041;-77
2022/06/18 08:00:44;;;;;;;32.80;13.60;;;22.50;99.90;;;;;;5072094;28;20044;-79
2022/06/18 08:03:10;;;;;;;;;;;22.60;99.90;;;;;;5072326;28;20045;-77
2022/06/18 08:05:37;;;;;;;30.38;12.13;;;22.70;99.90;;;;;;5070435;28;20013;-77
2022/06/18 08:08:03;;;;;;;30.15;13.02;;;22.80;99.90;;;;;;5070913;28;20048;-77
2022/06/18 08:10:30;;;;;;;30.02;12.35;;;22.80;99.90;;;;;;5073362;28;20056;-77
2022/06/18 08:12:56;;;;;;;22.30;11.38;;;23.00;99.20;;;;;;5075131;28;20051;-77
2022/06/18 08:15:22;;;;;;;25.67;11.03;;;22.90;98.00;;;;;;5075198;28;20119;-76
2022/06/18 08:17:47;;;;;;;25.87;11.37;;;22.90;98.80;;;;;;5075157;28;20041;-77
2022/06/18 08:20:13;;;;;;;26.03;10.70;;;23.10;98.00;;;;;;5074153;28;20032;-76
2022/06/18 08:22:43;;;;;;;23.87;10.23;;;23.10;97.30;;;;;;5073875;28;20044;-76
2022/06/18 08:25:11;;;;;;;23.23;10.98;;;23.30;97.90;;;;;;5075547;28;20124;-76
2022/06/18 08:27:37;;;;;;;32.55;12.23;;;23.30;97.10;;;;;;5074758;28;20045;-77
2022/06/18 08:30:04;;;;;;;27.33;10.55;;;23.40;96.50;;;;;;5057606;28;20119;-78
2022/06/18 08:32:30;;;;;;;19.52;9.35;;;23.50;96.60;;;;;;5074939;28;20048;-77
2022/06/18 08:34:56;;;;;;;19.63;8.77;;;23.60;96.80;;;;;;5075318;28;20365;-79
2022/06/18 08:37:22;;;;;;;28.60;10.73;;;23.70;96.00;;;;;;5073611;28;20044;-77
2022/06/18 08:39:48;;;;;;;36.40;12.25;;;23.70;96.40;;;;;;5075172;28;20499;-75
2022/06/18 08:42:26;;;;;;;28.63;12.05;;;23.60;96.70;;;;;;5075245;28;20396;-78
2022/06/18 08:44:57;;;;;;;21.52;10.05;;;23.80;97.00;;;;;;5074199;28;20128;-77
2022/06/18 08:47:55;;;;;;;33.20;9.73;;;23.70;95.50;;;;;;5075481;28;20044;-78
2022/06/18 08:50:27;;;;;;;22.73;9.48;;;23.70;94.90;;;;;;5065675;28;20079;-77
2022/06/18 08:53:02;;;;;;;23.95;9.50;;;23.70;95.40;;;;;;5074651;28;20052;-76
2022/06/18 08:55:34;;;;;;;28.25;10.27;;;23.80;96.00;;;;;;5074726;28;20063;-78
2022/06/18 08:58:02;;;;;;;24.17;10.30;;;23.90;95.80;;;;;;5074514;28;20097;-77
2022/06/18 09:00:37;;;;;;;30.08;11.98;;;24.10;95.90;;;;;;5074281;28;20036;-77
2022/06/18 09:03:27;;;;;;;28.08;10.95;;;24.30;95.70;;;;;;5074166;28;20079;-76
2022/06/18 09:06:21;;;;;;;22.08;10.27;;;24.30;95.80;;;;;;5074903;28;20369;-76
2022/06/18 09:09:03;;;;;;;26.15;10.65;;;24.30;95.80;;;;;;5074547;28;20140;-77
2022/06/18 09:11:47;;;;;;;26.63;11.65;;;24.20;94.70;;;;;;5072782;28;20125;-76
2022/06/18 09:14:30;;;;;;;26.40;11.45;;;24.40;95.60;;;;;;5074140;28;20044;-78
2022/06/18 09:17:32;;;;;;;27.60;13.50;;;24.50;95.00;;;;;;5073741;28;20546;-77
2022/06/18 09:20:28;;;;;;;25.48;10.57;;;24.30;94.30;;;;;;5073531;28;20037;-78
2022/06/18 09:22:57;;;;;;;23.00;9.57;;;24.40;95.30;;;;;;5073363;28;20109;-78
2022/06/18 09:25:30;;;;;;;24.92;10.27;;;24.60;95.20;;;;;;5072295;28;20045;-81
2022/06/18 09:28:04;;;;;;;19.30;9.93;;;24.60;94.10;;;;;;5073983;28;20258;-79
2022/06/18 09:30:42;;;;;;;22.13;8.73;;;24.60;94.70;;;;;;5073799;28;20048;-79
2022/06/18 09:33:17;;;;;;;22.33;7.53;;;24.50;93.80;;;;;;5072899;28;20127;-79
2022/06/18 09:35:57;;;;;;;18.57;7.37;;;24.30;93.80;;;;;;5073936;28;20041;-78
2022/06/18 09:38:33;;;;;;;21.58;6.85;;;24.30;93.60;;;;;;5074141;28;20270;-78
2022/06/18 09:41:25;;;;;;;17.70;7.75;;;24.60;94.20;;;;;;5072283;28;20427;-77
2022/06/18 09:44:16;;;;;;;16.98;8.32;;;24.70;93.50;;;;;;5071736;28;20059;-77
2022/06/18 09:47:08;;;;;;;22.83;7.38;;;24.40;93.50;;;;;;5074493;28;20112;-77
2022/06/18 09:49:35;;;;;;;23.85;8.20;;;24.50;94.60;;;;;;5073537;28;20048;-76
2022/06/18 09:52:22;;;;;;;;;;;24.70;94.30;;;;;;5072571;28;20057;-79
2022/06/18 09:55:03;;;;;;;20.75;8.13;;;24.70;94.30;;;;;;5073901;28;20280;-79
2022/06/18 09:57:33;;;;;;;19.67;8.70;;;24.70;93.90;;;;;;5073040;28;20044;-79
2022/06/18 10:00:09;;;;;;;25.52;8.27;;;24.90;94.00;;;;;;5073247;28;20052;-76
2022/06/18 10:02:41;;;;;;;24.70;8.43;;;24.90;94.50;;;;;;5074002;28;20056;-79
2022/06/18 10:08:01;;;;;;;22.08;8.63;;;25.20;94.30;;;;;;5073189;28;20452;-78
2022/06/18 10:10:28;;;;;;;25.35;8.25;;;25.30;94.10;;;;;;5073857;28;20052;-76
2022/06/18 10:12:57;;;;;;;27.45;9.30;;;25.50;93.90;;;;;;5072858;28;20064;-77
2022/06/18 10:15:24;;;;;;;23.17;8.80;;;25.60;93.80;;;;;;5073012;28;20048;-77
2022/06/18 10:18:02;;;;;;;22.08;7.70;;;25.80;94.10;;;;;;5072793;28;20127;-78
2022/06/18 10:20:52;;;;;;;21.85;7.15;;;25.90;92.30;;;;;;5072937;28;20131;-78
2022/06/18 10:24:02;;;;;;;19.60;6.95;;;26.00;91.80;;;;;;5072980;28;20052;-77
2022/06/18 10:26:54;;;;;;;17.45;6.78;;;25.40;92.00;;;;;;5018868;28;20198;-76
2022/06/18 10:29:26;;;;;;;15.82;7.40;;;25.40;92.70;;;;;;5054252;28;20472;-78
2022/06/18 10:32:32;;;;;;;16.58;6.82;;;25.40;91.80;;;;;;5071644;28;20097;-78
2022/06/18 10:35:38;;;;;;;24.55;7.32;;;25.60;92.20;;;;;;5072262;28;20078;-77
2022/06/18 10:38:28;;;;;;;16.60;6.05;;;25.60;92.60;;;;;;5073041;28;20102;-77
2022/06/18 10:41:22;;;;;;;18.73;6.85;;;25.50;91.40;;;;;;5073082;28;20063;-77
2022/06/18 10:43:59;;;;;;;16.63;6.82;;;25.40;91.40;;;;;;5072664;28;20064;-77
2022/06/18 10:46:26;;;;;;;18.88;6.57;;;25.20;91.50;;;;;;5072407;28;20450;-75
2022/06/18 10:48:56;;;;;;;19.10;6.20;;;25.40;91.80;;;;;;5071245;28;20134;-76
2022/06/18 10:51:28;;;;;;;18.95;7.05;;;25.70;92.40;;;;;;5072764;28;20051;-76
2022/06/18 10:53:59;;;;;;;20.17;7.18;;;25.50;91.50;;;;;;5071043;28;20055;-77
2022/06/18 10:56:28;;;;;;;15.88;6.60;;;25.70;91.40;;;;;;5072329;28;20060;-76
2022/06/18 10:58:56;;;;;;;16.58;6.65;;;25.90;91.50;;;;;;5072954;28;20045;-75
2022/06/18 11:01:30;;;;;;;22.00;6.88;;;26.20;91.30;;;;;;5071708;28;20047;-76
2022/06/18 11:03:59;;;;;;;15.40;7.13;;;26.20;90.40;;;;;;5070828;28;20056;-77
2022/06/18 11:06:25;;;;;;;16.40;6.85;;;26.50;90.90;;;;;;5072308;28;20052;-75
2022/06/18 11:08:58;;;;;;;18.73;6.60;;;26.60;91.00;;;;;;5072300;28;20091;-77
2022/06/18 11:11:32;;;;;;;22.60;7.30;;;26.60;90.80;;;;;;5072519;28;20150;-77
2022/06/18 11:14:18;;;;;;;18.33;7.32;;;26.90;90.20;;;;;;5072199;28;20055;-77
2022/06/18 11:16:46;;;;;;;17.75;7.13;;;26.90;89.80;;;;;;5072389;28;20105;-79
2022/06/18 11:19:33;;;;;;;19.77;7.07;;;26.90;89.70;;;;;;5072648;28;20045;-77
2022/06/18 11:22:31;;;;;;;15.73;6.70;;;27.00;89.70;;;;;;5072411;28;20040;-79
2022/06/18 11:25:00;;;;;;;14.05;6.90;;;27.10;90.10;;;;;;5048938;28;20056;-79
2022/06/18 11:27:37;;;;;;;17.13;6.47;;;27.30;89.40;;;;;;5071114;28;20127;-77
2022/06/18 11:30:22;;;;;;;13.68;6.20;;;27.30;87.70;;;;;;5072720;28;20098;-77
2022/06/18 11:32:49;;;;;;;;;;;27.40;86.60;;;;;;5073926;28;20052;-76
2022/06/18 11:35:18;;;;;;;15.85;7.00;;;27.10;86.60;;;;;;5073641;28;19926;-80
2022/06/18 11:37:54;;;;;;;20.55;7.47;;;27.10;86.60;;;;;;5072530;28;20488;-77
2022/06/18 11:40:20;;;;;;;;;;;27.00;87.00;;;;;;5073407;28;20052;-76
2022/06/18 11:42:48;;;;;;;;;;;26.80;88.70;;;;;;5073351;28;19955;-78
2022/06/18 11:45:39;;;;;;;24.55;6.85;;;26.60;86.60;;;;;;5074962;28;19920;-78
2022/06/18 11:48:23;;;;;;;17.20;6.70;;;27.10;88.20;;;;;;5077649;28;20052;-78
2022/06/18 11:51:17;;;;;;;15.82;6.03;;;27.40;88.30;;;;;;5077526;28;20068;-79
2022/06/18 11:54:18;;;;;;;16.20;5.57;;;27.50;86.10;;;;;;5091503;28;20074;-78
2022/06/18 11:57:08;;;;;;;19.77;5.93;;;27.60;85.40;;;;;;5068021;28;20492;-78
2022/06/18 11:59:42;;;;;;;13.82;5.30;;;27.30;84.50;;;;;;5077769;28;20045;-78
2022/06/18 12:02:15;;;;;;;15.65;6.03;;;27.20;81.60;;;;;;5060716;28;20044;-76
2022/06/18 12:04:53;;;;;;;20.77;5.93;;;27.40;81.40;;;;;;5077367;28;20113;-76
2022/06/18 12:07:32;;;;;;;22.50;6.40;;;27.30;80.70;;;;;;5068083;28;20063;-81
2022/06/18 12:09:58;;;;;;;19.35;5.32;;;27.20;82.80;;;;;;5096823;28;20112;-81
2022/06/18 12:12:42;;;;;;;18.25;5.20;;;27.30;82.00;;;;;;5095975;28;20044;-78
2022/06/18 12:15:14;;;;;;;14.73;4.70;;;27.40;81.30;;;;;;5094658;28;20072;-78
2022/06/18 12:18:15;;;;;;;19.63;5.25;;;27.40;81.20;;;;;;5094768;28;20037;-79
2022/06/18 12:20:46;;;;;;;21.67;5.47;;;26.90;79.80;;;;;;5060944;28;20053;-79
2022/06/18 12:23:21;;;;;;;14.07;5.32;;;27.10;79.60;;;;;;5090940;28;20070;-79
2022/06/18 12:25:52;;;;;;;17.05;5.35;;;27.30;78.40;;;;;;5089343;28;20041;-79
2022/06/18 12:28:53;;;;;;;17.27;4.82;;;27.50;81.40;;;;;;5085440;28;20045;-78
2022/06/18 12:31:39;;;;;;;15.32;5.20;;;27.30;79.70;;;;;;5076936;28;20058;-79
2022/06/18 12:34:32;;;;;;;12.70;4.90;;;27.40;80.30;;;;;;5077830;28;20133;-79
2022/06/18 12:37:35;;;;;;;17.35;5.47;;;27.60;82.30;;;;;;5078259;28;20071;-78
2022/06/18 12:40:26;;;;;;;14.75;4.93;;;27.80;81.60;;;;;;5073563;28;20048;-77
2022/06/18 12:43:02;;;;;;;23.70;5.15;;;27.90;81.60;;;;;;5075399;28;20146;-78
2022/06/18 12:45:46;;;;;;;13.73;5.45;;;28.00;80.90;;;;;;5075460;28;20058;-78
2022/06/18 12:48:30;;;;;;;14.75;5.50;;;28.10;80.60;;;;;;5074924;28;20178;-79
2022/06/18 12:51:05;;;;;;;11.32;5.45;;;27.70;78.80;;;;;;5074836;28;20435;-78
2022/06/18 12:53:51;;;;;;;15.20;4.93;;;27.80;78.60;;;;;;5074810;28;20055;-78
2022/06/18 12:56:50;;;;;;;18.63;4.97;;;28.20;79.70;;;;;;5072792;28;20047;-80
2022/06/18 12:59:30;;;;;;;12.70;4.85;;;28.40;79.90;;;;;;5074828;28;20048;-77
2022/06/18 13:02:12;;;;;;;18.40;5.03;;;28.10;77.80;;;;;;5075455;28;20105;-77
2022/06/18 13:05:00;;;;;;;22.92;5.50;;;27.80;79.20;;;;;;5074712;28;20053;-79
2022/06/18 13:07:31;;;;;;;15.68;5.45;;;27.40;77.40;;;;;;5074556;28;20057;-78
2022/06/18 13:10:21;;;;;;;12.70;5.10;;;27.30;78.20;;;;;;5074525;28;20127;-76
2022/06/18 13:12:57;;;;;;;15.48;4.90;;;27.30;78.70;;;;;;5074393;28;20048;-79